createdAt,value
2023-05-01T00:00:23.909Z,13.00
2023-05-01T00:02:52.757Z,13.00
2023-05-01T00:05:21.067Z,13.00
2023-05-01T00:07:50.702Z,12.90
2023-05-01T00:10:20.263Z,12.90
2023-05-01T00:12:48.366Z,12.90
2023-05-01T00:15:16.700Z,12.90
2023-05-01T00:17:44.845Z,12.80
2023-05-01T00:20:13.850Z,12.80
2023-05-01T00:22:41.996Z,12.80
2023-05-01T00:25:11.757Z,12.80
2023-05-01T00:27:39.857Z,12.80
2023-05-01T00:30:09.420Z,12.70
2023-05-01T00:32:38.883Z,12.70
2023-05-01T00:35:07.570Z,12.80
2023-05-01T00:37:35.784Z,12.80
2023-05-01T00:40:05.333Z,12.80
2023-05-01T00:42:39.225Z,12.80
2023-05-01T00:45:08.607Z,12.80
2023-05-01T00:47:37.917Z,12.80
2023-05-01T00:50:07.411Z,12.80
2023-05-01T00:52:35.893Z,12.80
2023-05-01T00:55:05.444Z,12.80
2023-05-01T00:57:34.762Z,12.80
2023-05-01T01:00:05.480Z,12.80
2023-05-01T01:02:33.827Z,12.80
2023-05-01T01:05:01.993Z,12.80
2023-05-01T01:07:38.303Z,12.80
2023-05-01T01:10:13.613Z,12.80
2023-05-01T01:13:01.407Z,12.80
2023-05-01T01:15:37.272Z,12.80
2023-05-01T01:18:11.544Z,12.80
2023-05-01T01:20:42.693Z,12.80
2023-05-01T01:23:37.719Z,12.80
2023-05-01T01:26:40.355Z,12.80
2023-05-01T01:29:30.760Z,12.80
2023-05-01T01:32:11.282Z,12.80
2023-05-01T01:34:46.394Z,12.70
2023-05-01T01:37:20.828Z,12.80
2023-05-01T01:39:55.369Z,12.80
2023-05-01T01:42:27.982Z,12.80
2023-05-01T01:44:58.296Z,12.70
2023-05-01T01:47:31.868Z,12.80
2023-05-01T01:50:04.373Z,12.70
2023-05-01T01:52:36.398Z,12.70
2023-05-01T01:55:08.505Z,12.70
2023-05-01T01:57:39.633Z,12.70
2023-05-01T02:00:11.123Z,12.70
2023-05-01T02:02:41.266Z,12.70
2023-05-01T02:05:15.129Z,12.70
2023-05-01T02:07:44.522Z,12.70
2023-05-01T02:10:15.041Z,12.70
2023-05-01T02:12:45.891Z,12.60
2023-05-01T02:15:15.464Z,12.70
2023-05-01T02:17:44.068Z,12.60
2023-05-01T02:20:15.341Z,12.60
2023-05-01T02:22:46.073Z,12.60
2023-05-01T02:25:16.951Z,12.60
2023-05-01T02:27:49.174Z,12.60
2023-05-01T02:30:18.831Z,12.50
2023-05-01T02:32:47.155Z,12.60
2023-05-01T02:35:17.081Z,12.60
2023-05-01T02:37:46.042Z,12.50
2023-05-01T02:40:16.878Z,12.50
2023-05-01T02:42:46.263Z,12.50
2023-05-01T02:45:20.327Z,12.50
2023-05-01T02:47:54.207Z,12.40
2023-05-01T02:50:24.581Z,12.30
2023-05-01T02:52:53.037Z,12.30
2023-05-01T02:55:21.402Z,12.20
2023-05-01T02:57:52.136Z,12.20
2023-05-01T03:00:20.883Z,12.20
2023-05-01T03:02:49.290Z,12.20
2023-05-01T03:05:17.584Z,12.30
2023-05-01T03:07:47.428Z,12.30
2023-05-01T03:10:16.412Z,12.30
2023-05-01T03:12:44.640Z,12.30
2023-05-01T03:15:13.354Z,12.30
2023-05-01T03:17:41.578Z,12.20
2023-05-01T03:20:10.968Z,12.30
2023-05-01T03:22:39.191Z,12.20
2023-05-01T03:25:10.496Z,12.20
2023-05-01T03:27:38.702Z,12.20
2023-05-01T03:30:08.929Z,12.20
2023-05-01T03:32:37.185Z,12.20
2023-05-01T03:35:06.008Z,12.20
2023-05-01T03:37:34.986Z,12.20
2023-05-01T03:40:03.727Z,12.10
2023-05-01T03:42:33.248Z,12.20
2023-05-01T03:45:01.380Z,12.20
2023-05-01T03:47:30.230Z,12.20
2023-05-01T03:49:58.877Z,12.10
2023-05-01T03:52:27.298Z,12.10
2023-05-01T03:54:55.425Z,12.10
2023-05-01T03:57:24.053Z,12.10
2023-05-01T03:59:54.506Z,12.10
2023-05-01T04:02:23.234Z,12.00
2023-05-01T04:04:51.558Z,12.00
2023-05-01T04:07:20.043Z,12.00
2023-05-01T04:09:48.506Z,12.00
2023-05-01T04:12:16.891Z,11.90
2023-05-01T04:14:45.721Z,11.90
2023-05-01T04:17:15.611Z,11.90
2023-05-01T04:19:44.287Z,11.80
2023-05-01T04:22:12.415Z,11.80
2023-05-01T04:24:40.794Z,11.80
2023-05-01T04:27:09.466Z,11.80
2023-05-01T04:29:37.817Z,11.80
2023-05-01T04:32:06.261Z,11.80
2023-05-01T04:34:35.907Z,11.80
2023-05-01T04:37:04.191Z,11.80
2023-05-01T04:39:32.309Z,11.80
2023-05-01T04:42:02.212Z,11.80
2023-05-01T04:44:30.707Z,11.70
2023-05-01T04:46:58.900Z,11.80
2023-05-01T04:49:27.098Z,11.80
2023-05-01T04:51:56.804Z,11.80
2023-05-01T04:54:25.709Z,11.80
2023-05-01T04:56:53.883Z,11.80
2023-05-01T04:59:22.167Z,11.80
2023-05-01T05:01:50.470Z,11.80
2023-05-01T05:04:18.801Z,11.80
2023-05-01T05:06:47.261Z,11.90
2023-05-01T05:09:19.955Z,11.90
2023-05-01T05:11:48.607Z,11.90
2023-05-01T05:14:16.756Z,11.90
2023-05-01T05:16:44.955Z,11.90
2023-05-01T05:19:13.612Z,11.90
2023-05-01T05:21:41.728Z,11.90
2023-05-01T05:24:09.985Z,11.90
2023-05-01T05:26:39.456Z,12.00
2023-05-01T05:29:07.774Z,12.00
2023-05-01T05:31:35.955Z,12.00
2023-05-01T05:34:04.172Z,12.00
2023-05-01T05:36:32.425Z,12.10
2023-05-01T05:39:01.518Z,12.10
2023-05-01T05:41:29.679Z,12.20
2023-05-01T05:43:59.710Z,12.20
2023-05-01T05:46:28.026Z,12.20
2023-05-01T05:48:56.145Z,12.20
2023-05-01T05:51:24.302Z,12.30
2023-05-01T05:53:52.600Z,12.30
2023-05-01T05:56:21.002Z,12.40
2023-05-01T05:58:49.101Z,12.40
2023-05-01T06:01:18.727Z,12.50
2023-05-01T06:03:46.927Z,12.50
2023-05-01T06:06:15.339Z,12.60
2023-05-01T06:08:45.743Z,12.60
2023-05-01T06:11:14.067Z,12.70
2023-05-01T06:13:42.324Z,12.70
2023-05-01T06:16:10.560Z,12.70
2023-05-01T06:18:40.189Z,12.70
2023-05-01T06:21:08.393Z,12.80
2023-05-01T06:23:36.588Z,12.90
2023-05-01T06:26:04.757Z,12.90
2023-05-01T06:28:32.859Z,13.00
2023-05-01T06:31:01.346Z,13.00
2023-05-01T06:33:29.470Z,12.90
2023-05-01T06:35:59.856Z,13.10
2023-05-01T06:38:28.092Z,13.10
2023-05-01T06:40:56.573Z,13.20
2023-05-01T06:43:28.072Z,13.20
2023-05-01T06:45:56.343Z,13.30
2023-05-01T06:48:24.767Z,13.40
2023-05-01T06:50:53.055Z,13.50
2023-05-01T06:53:22.593Z,13.60
2023-05-01T06:55:51.571Z,13.70
2023-05-01T06:58:23.990Z,13.80
2023-05-01T07:00:54.104Z,13.80
2023-05-01T07:03:23.229Z,13.90
2023-05-01T07:05:51.866Z,14.00
2023-05-01T07:08:20.026Z,14.00
2023-05-01T07:10:50.568Z,14.00
2023-05-01T07:13:19.522Z,14.10
2023-05-01T07:15:48.857Z,14.20
2023-05-01T07:18:17.248Z,14.40
2023-05-01T07:20:46.790Z,14.40
2023-05-01T07:23:14.989Z,14.50
2023-05-01T07:25:44.474Z,14.60
2023-05-01T07:28:14.246Z,14.60
2023-05-01T07:30:42.784Z,14.70
2023-05-01T07:33:11.704Z,14.80
2023-05-01T07:35:40.233Z,14.90
2023-05-01T07:38:08.807Z,15.00
2023-05-01T07:40:37.067Z,15.10
2023-05-01T07:43:05.392Z,15.10
2023-05-01T07:45:35.215Z,15.10
2023-05-01T07:48:03.671Z,15.20
2023-05-01T07:50:32.107Z,15.30
2023-05-01T07:53:00.320Z,15.20
2023-05-01T07:55:28.752Z,15.00
2023-05-01T07:57:56.866Z,15.00
2023-05-01T08:00:25.216Z,15.10
2023-05-01T08:02:54.966Z,15.10
2023-05-01T08:05:23.205Z,15.10
2023-05-01T08:07:51.585Z,15.40
2023-05-01T08:10:19.764Z,15.50
2023-05-01T08:12:47.944Z,15.70
2023-05-01T08:15:16.472Z,15.90
2023-05-01T08:17:44.922Z,16.20
2023-05-01T08:20:15.292Z,16.30
2023-05-01T08:22:43.448Z,16.50
2023-05-01T08:25:11.644Z,16.60
2023-05-01T08:27:40.392Z,16.60
2023-05-01T08:30:09.453Z,16.80
2023-05-01T08:32:37.633Z,17.00
2023-05-01T08:35:06.677Z,17.30
2023-05-01T08:37:36.377Z,17.40
2023-05-01T08:40:08.806Z,17.50
2023-05-01T08:42:39.135Z,17.60
2023-05-01T08:45:09.506Z,17.60
2023-05-01T08:47:39.131Z,17.60
2023-05-01T08:50:12.145Z,17.60
2023-05-01T08:52:43.648Z,17.80
2023-05-01T08:55:16.758Z,17.80
2023-05-01T08:57:50.821Z,18.00
2023-05-01T09:00:21.081Z,18.00
2023-05-01T09:02:50.823Z,18.10
2023-05-01T09:05:20.195Z,18.40
2023-05-01T09:07:50.030Z,18.50
2023-05-01T09:10:22.571Z,18.70
2023-05-01T09:12:56.345Z,18.80
2023-05-01T09:15:27.031Z,18.80
2023-05-01T09:17:56.015Z,18.30
2023-05-01T09:20:25.456Z,18.20
2023-05-01T09:22:55.371Z,18.40
2023-05-01T09:25:23.504Z,18.60
2023-05-01T09:27:53.522Z,18.30
2023-05-01T09:30:35.273Z,18.40
2023-05-01T09:33:08.370Z,18.80
2023-05-01T09:35:56.265Z,18.70
2023-05-01T09:38:27.490Z,18.60
2023-05-01T09:41:04.651Z,18.60
2023-05-01T09:43:32.999Z,18.60
2023-05-01T09:46:07.057Z,18.70
2023-05-01T09:48:36.154Z,18.60
2023-05-01T09:51:22.170Z,18.50
2023-05-01T09:53:52.517Z,18.30
2023-05-01T09:56:21.430Z,17.90
2023-05-01T09:58:51.402Z,17.90
2023-05-01T10:01:20.503Z,17.80
2023-05-01T10:03:56.095Z,17.70
2023-05-01T10:06:30.611Z,17.70
2023-05-01T10:09:00.229Z,17.70
2023-05-01T10:11:28.564Z,17.50
2023-05-01T10:14:17.862Z,17.40
2023-05-01T10:16:47.374Z,17.20
2023-05-01T10:19:18.136Z,17.20
2023-05-01T10:21:46.656Z,17.30
2023-05-01T10:24:18.458Z,17.40
2023-05-01T10:26:50.071Z,17.40
2023-05-01T10:29:20.282Z,17.50
2023-05-01T10:31:48.429Z,17.50
2023-05-01T10:34:19.379Z,17.40
2023-05-01T10:36:54.949Z,17.30
2023-05-01T10:39:34.672Z,17.30
2023-05-01T10:42:08.670Z,17.40
2023-05-01T10:44:37.275Z,17.50
2023-05-01T10:47:42.991Z,17.40
2023-05-01T10:50:12.345Z,17.40
2023-05-01T10:53:17.773Z,17.30
2023-05-01T10:55:49.316Z,17.20
2023-05-01T10:58:51.968Z,17.10
2023-05-01T11:01:31.624Z,17.00
2023-05-01T11:04:00.652Z,17.10
2023-05-01T11:06:29.402Z,17.30
2023-05-01T11:08:58.301Z,17.20
2023-05-01T11:12:01.028Z,17.40
2023-05-01T11:14:29.301Z,17.40
2023-05-01T11:16:57.525Z,17.20
2023-05-01T11:19:50.402Z,17.10
2023-05-01T11:22:19.969Z,17.10
2023-05-01T11:24:48.124Z,17.20
2023-05-01T11:27:18.344Z,17.40
2023-05-01T11:29:49.899Z,17.50
2023-05-01T11:32:25.371Z,17.80
2023-05-01T11:34:54.421Z,17.90
2023-05-01T11:37:41.017Z,17.80
2023-05-01T11:40:21.447Z,17.90
2023-05-01T11:42:51.941Z,18.20
2023-05-01T11:45:21.054Z,18.50
2023-05-01T11:47:50.100Z,18.70
2023-05-01T11:50:18.534Z,18.40
2023-05-01T11:52:49.363Z,18.10
2023-05-01T11:55:17.903Z,17.90
2023-05-01T11:57:51.855Z,18.10
2023-05-01T12:00:29.701Z,18.00
2023-05-01T12:03:00.032Z,17.70
2023-05-01T12:05:29.677Z,17.60
2023-05-01T12:08:14.822Z,17.60
2023-05-01T12:10:44.487Z,17.50
2023-05-01T12:13:15.405Z,17.60
2023-05-01T12:15:45.655Z,17.70
2023-05-01T12:18:15.055Z,17.60
2023-05-01T12:20:44.833Z,17.60
2023-05-01T12:23:14.903Z,17.30
2023-05-01T12:25:44.983Z,17.40
2023-05-01T12:28:16.018Z,17.30
2023-05-01T12:30:45.909Z,17.30
2023-05-01T12:33:15.759Z,17.20
2023-05-01T12:35:46.812Z,17.00
2023-05-01T12:38:16.416Z,17.00
2023-05-01T12:40:55.965Z,17.00
2023-05-01T12:43:33.415Z,17.00
2023-05-01T12:46:02.777Z,17.30
2023-05-01T12:48:34.605Z,17.60
2023-05-01T12:51:02.912Z,18.00
2023-05-01T12:53:31.895Z,18.10
2023-05-01T12:56:01.322Z,18.20
2023-05-01T12:58:38.456Z,18.20
2023-05-01T13:01:07.411Z,18.40
2023-05-01T13:03:38.497Z,18.60
2023-05-01T13:06:08.565Z,18.70
2023-05-01T13:08:39.670Z,18.60
2023-05-01T13:11:13.640Z,18.30
2023-05-01T13:13:45.333Z,18.20
2023-05-01T13:16:16.010Z,18.10
2023-05-01T13:18:45.739Z,18.30
2023-05-01T13:21:16.321Z,18.60
2023-05-01T13:23:54.025Z,18.30
2023-05-01T13:26:28.414Z,18.40
2023-05-01T13:29:00.026Z,18.40
2023-05-01T13:31:28.923Z,18.40
2023-05-01T13:33:59.373Z,18.30
2023-05-01T13:36:32.948Z,17.90
2023-05-01T13:39:01.192Z,17.90
2023-05-01T13:41:30.543Z,17.70
2023-05-01T13:44:00.383Z,17.40
2023-05-01T13:46:29.824Z,17.40
2023-05-01T13:49:08.944Z,17.50
2023-05-01T13:51:42.785Z,17.60
2023-05-01T13:54:12.669Z,17.60
2023-05-01T13:56:42.470Z,17.60
2023-05-01T13:59:12.152Z,17.30
2023-05-01T14:01:46.115Z,17.20
2023-05-01T14:04:18.165Z,17.10
2023-05-01T14:06:48.596Z,16.90
2023-05-01T14:09:19.255Z,16.60
2023-05-01T14:11:48.607Z,16.50
2023-05-01T14:14:19.380Z,16.30
2023-05-01T14:16:49.285Z,16.10
2023-05-01T14:19:18.473Z,15.90
2023-05-01T14:21:46.989Z,15.70
2023-05-01T14:24:18.210Z,15.60
2023-05-01T14:26:48.531Z,15.60
2023-05-01T14:29:27.997Z,15.60
2023-05-01T14:31:56.724Z,15.60
2023-05-01T14:34:26.337Z,15.60
2023-05-01T14:36:56.452Z,15.70
2023-05-01T14:39:24.990Z,15.50
2023-05-01T14:41:53.096Z,15.60
2023-05-01T14:44:27.604Z,15.90
2023-05-01T14:46:58.861Z,16.00
2023-05-01T14:49:27.335Z,16.50
2023-05-01T14:51:55.741Z,16.60
2023-05-01T14:54:23.956Z,16.80
2023-05-01T14:56:52.129Z,16.70
2023-05-01T14:59:20.402Z,16.80
2023-05-01T15:01:49.602Z,16.80
2023-05-01T15:04:20.158Z,17.00
2023-05-01T15:06:48.541Z,16.90
2023-05-01T15:09:16.803Z,16.90
2023-05-01T15:11:44.913Z,17.00
2023-05-01T15:14:13.128Z,17.20
2023-05-01T15:16:41.334Z,17.10
2023-05-01T15:19:09.802Z,16.90
2023-05-01T15:21:39.480Z,17.00
2023-05-01T15:24:07.717Z,17.10
2023-05-01T15:26:35.948Z,17.10
2023-05-01T15:29:04.077Z,16.90
2023-05-01T15:31:32.356Z,17.00
2023-05-01T15:34:01.787Z,16.90
2023-05-01T15:36:30.411Z,17.00
2023-05-01T15:38:59.994Z,17.00
2023-05-01T15:41:28.192Z,17.10
2023-05-01T15:43:56.525Z,17.30
2023-05-01T15:46:28.239Z,17.20
2023-05-01T15:48:56.406Z,17.40
2023-05-01T15:51:26.074Z,17.40
2023-05-01T15:53:54.375Z,17.30
2023-05-01T15:56:24.898Z,17.30
2023-05-01T15:58:53.366Z,17.30
2023-05-01T16:01:21.606Z,17.30
2023-05-01T16:03:50.220Z,17.30
2023-05-01T16:06:18.535Z,17.20
2023-05-01T16:08:46.729Z,17.10
2023-05-01T16:11:14.826Z,17.10
2023-05-01T16:13:44.506Z,17.10
2023-05-01T16:16:14.482Z,17.20
2023-05-01T16:18:43.402Z,17.20
2023-05-01T16:21:12.092Z,17.20
2023-05-01T16:23:40.997Z,17.30
2023-05-01T16:26:11.321Z,17.40
2023-05-01T16:28:39.503Z,17.60
2023-05-01T16:31:23.581Z,17.60
2023-05-01T16:33:56.647Z,17.40
2023-05-01T16:36:24.872Z,17.30
2023-05-01T16:38:54.636Z,17.20
2023-05-01T16:41:25.036Z,17.30
2023-05-01T16:43:53.936Z,17.20
2023-05-01T16:46:23.524Z,17.20
2023-05-01T16:48:51.941Z,17.30
2023-05-01T16:51:20.185Z,17.30
2023-05-01T16:53:48.319Z,17.30
2023-05-01T16:56:16.473Z,17.20
2023-05-01T16:58:44.859Z,17.00
2023-05-01T17:01:13.537Z,16.90
2023-05-01T17:03:43.317Z,16.80
2023-05-01T17:06:11.586Z,16.80
2023-05-01T17:08:39.883Z,16.70
2023-05-01T17:11:08.655Z,16.70
2023-05-01T17:13:36.840Z,16.60
2023-05-01T17:16:05.261Z,16.60
2023-05-01T17:18:33.462Z,16.60
2023-05-01T17:21:02.929Z,16.40
2023-05-01T17:23:31.048Z,16.20
2023-05-01T17:25:59.328Z,16.20
2023-05-01T17:28:27.708Z,16.10
2023-05-01T17:30:56.282Z,15.90
2023-05-01T17:33:24.734Z,15.80
2023-05-01T17:35:55.518Z,15.70
2023-05-01T17:38:25.299Z,15.80
2023-05-01T17:40:53.409Z,15.70
2023-05-01T17:43:22.137Z,15.80
2023-05-01T17:45:50.330Z,15.60
2023-05-01T17:48:19.617Z,15.60
2023-05-01T17:50:48.051Z,15.50
2023-05-01T17:53:16.202Z,15.60
2023-05-01T17:55:45.836Z,15.50
2023-05-01T17:58:14.574Z,15.40
2023-05-01T18:00:42.697Z,15.40
2023-05-01T18:03:10.952Z,15.40
2023-05-01T18:05:39.467Z,15.40
2023-05-01T18:08:07.847Z,15.30
2023-05-01T18:10:36.057Z,15.30
2023-05-01T18:13:05.618Z,15.30
2023-05-01T18:15:33.935Z,15.30
2023-05-01T18:18:02.138Z,15.20
2023-05-01T18:20:30.279Z,15.20
2023-05-01T18:22:58.428Z,15.10
2023-05-01T18:25:26.678Z,15.10
2023-05-01T18:27:55.203Z,15.00
2023-05-01T18:30:25.154Z,15.00
2023-05-01T18:32:54.014Z,14.90
2023-05-01T18:35:22.203Z,14.90
2023-05-01T18:37:50.870Z,14.90
2023-05-01T18:40:19.027Z,14.90
2023-05-01T18:42:47.469Z,14.80
2023-05-01T18:45:15.595Z,14.70
2023-05-01T18:47:45.125Z,14.70
2023-05-01T18:50:13.284Z,14.60
2023-05-01T18:52:42.427Z,14.50
2023-05-01T18:55:11.802Z,14.50
2023-05-01T18:57:41.816Z,14.40
2023-05-01T19:00:11.236Z,14.30
2023-05-01T19:02:39.454Z,14.30
2023-05-01T19:05:10.583Z,14.20
2023-05-01T19:07:38.894Z,14.20
2023-05-01T19:10:08.458Z,14.20
2023-05-01T19:12:36.845Z,14.10
2023-05-01T19:15:05.455Z,14.00
2023-05-01T19:17:34.027Z,14.00
2023-05-01T19:20:04.208Z,13.90
2023-05-01T19:22:33.874Z,13.90
2023-05-01T19:25:03.215Z,13.80
2023-05-01T19:27:31.907Z,13.70
2023-05-01T19:30:01.409Z,13.70
2023-05-01T19:32:30.028Z,13.60
2023-05-01T19:34:58.228Z,13.50
2023-05-01T19:37:28.031Z,13.50
2023-05-01T19:39:57.800Z,13.50
2023-05-01T19:42:26.217Z,13.50
2023-05-01T19:44:54.356Z,13.40
2023-05-01T19:47:22.580Z,13.30
2023-05-01T19:49:50.902Z,13.30
2023-05-01T19:52:19.690Z,13.30
2023-05-01T19:54:48.042Z,13.20
2023-05-01T19:57:20.343Z,13.20
2023-05-01T19:59:49.381Z,13.10
2023-05-01T20:02:17.543Z,13.10
2023-05-01T20:04:46.680Z,13.10
2023-05-01T20:07:16.295Z,13.00
2023-05-01T20:09:45.997Z,12.90
2023-05-01T20:12:14.133Z,12.80
2023-05-01T20:14:43.620Z,12.80
2023-05-01T20:17:11.837Z,12.70
2023-05-01T20:19:40.138Z,12.60
2023-05-01T20:22:08.315Z,12.60
2023-05-01T20:24:36.529Z,12.50
2023-05-01T20:27:05.040Z,12.50
2023-05-01T20:29:33.326Z,12.40
2023-05-01T20:32:03.135Z,12.40
2023-05-01T20:34:31.663Z,12.30
2023-05-01T20:36:59.796Z,12.30
2023-05-01T20:39:28.000Z,12.30
2023-05-01T20:41:56.183Z,12.20
2023-05-01T20:44:24.401Z,12.20
2023-05-01T20:46:52.748Z,12.10
2023-05-01T20:49:22.622Z,12.10
2023-05-01T20:51:50.801Z,12.10
2023-05-01T20:54:18.998Z,12.00
2023-05-01T20:56:47.235Z,12.00
2023-05-01T20:59:15.448Z,12.00
2023-05-01T21:01:43.706Z,11.90
2023-05-01T21:04:11.941Z,11.90
2023-05-01T21:06:42.943Z,11.80
2023-05-01T21:09:14.881Z,11.80
2023-05-01T21:11:43.143Z,11.70
2023-05-01T21:14:12.022Z,11.70
2023-05-01T21:16:40.811Z,11.60
2023-05-01T21:19:11.202Z,11.60
2023-05-01T21:21:40.137Z,11.60
2023-05-01T21:24:12.234Z,11.50
2023-05-01T21:26:40.655Z,11.50
2023-05-01T21:29:09.726Z,11.40
2023-05-01T21:31:37.963Z,11.40
2023-05-01T21:34:07.050Z,11.40
2023-05-01T21:36:38.020Z,11.30
2023-05-01T21:39:06.119Z,11.30
2023-05-01T21:41:36.363Z,11.20
2023-05-01T21:44:04.910Z,11.20
2023-05-01T21:46:33.156Z,11.20
2023-05-01T21:49:01.396Z,11.10
2023-05-01T21:51:29.960Z,11.10
2023-05-01T21:53:58.315Z,11.10
2023-05-01T21:56:27.019Z,11.10
2023-05-01T21:59:01.307Z,11.00
2023-05-01T22:01:29.837Z,11.00
2023-05-01T22:03:58.379Z,11.00
2023-05-01T22:06:27.059Z,11.00
2023-05-01T22:08:55.173Z,11.00
2023-05-01T22:11:24.422Z,11.00
2023-05-01T22:13:52.561Z,10.90
2023-05-01T22:16:22.318Z,10.90
2023-05-01T22:18:51.343Z,10.90
2023-05-01T22:21:19.418Z,10.90
2023-05-01T22:23:47.694Z,10.90
2023-05-01T22:26:15.822Z,10.90
2023-05-01T22:28:45.326Z,10.80
2023-05-01T22:31:13.539Z,10.80
2023-05-01T22:33:43.032Z,10.80
2023-05-01T22:36:11.218Z,10.80
2023-05-01T22:38:39.399Z,10.90
2023-05-01T22:41:08.065Z,10.90
2023-05-01T22:43:36.445Z,10.90
2023-05-01T22:46:06.044Z,10.90
2023-05-01T22:48:34.297Z,11.00
2023-05-01T22:51:03.820Z,11.00
2023-05-01T22:53:31.934Z,11.00
2023-05-01T22:56:00.076Z,10.90
2023-05-01T22:58:28.315Z,11.00
2023-05-01T23:00:56.564Z,11.00
2023-05-01T23:03:24.842Z,11.00
2023-05-01T23:05:52.967Z,11.00
2023-05-01T23:08:22.634Z,11.00
2023-05-01T23:10:50.810Z,11.00
2023-05-01T23:13:22.776Z,11.00
2023-05-01T23:15:52.431Z,11.00
2023-05-01T23:18:24.748Z,11.10
2023-05-01T23:20:53.746Z,11.10
2023-05-01T23:23:23.660Z,11.10
2023-05-01T23:25:51.910Z,11.10
2023-05-01T23:28:22.216Z,11.10
2023-05-01T23:30:55.375Z,11.10
2023-05-01T23:33:25.270Z,11.10
2023-05-01T23:35:53.531Z,11.10
2023-05-01T23:38:23.030Z,11.10
2023-05-01T23:40:51.856Z,11.10
2023-05-01T23:43:20.664Z,11.10
2023-05-01T23:45:49.015Z,11.20
2023-05-01T23:48:17.381Z,11.10
2023-05-01T23:50:45.562Z,11.10
2023-05-01T23:53:14.054Z,11.10
2023-05-01T23:55:46.015Z,11.10
2023-05-01T23:58:15.089Z,11.00
